Time;durP1;ratioP1;P1;durP2;ratioP2;P2;SDS_P1;SDS_P2;PMS_P1;PMS_P2;Temp;Humidity;BMP_temperature;BMP_pressure;BME280_temperature;BME280_humidity;BME280_pressure;Samples;Min_cycle;Max_cycle;Signal;HPM_P1;HPM_P2
2022/01/26 00:07:19;;;;;;;;;12.75;12.50;;;;;3.78;76.51;103270.66;4969261;28;11447;-72
2022/01/26 00:09:45;;;;;;;;;16.50;15.50;;;;;3.77;76.78;103268.94;4953468;28;11446;-72
2022/01/26 00:12:12;;;;;;;;;15.75;13.50;;;;;3.83;76.70;103271.28;4970873;28;12411;-72
2022/01/26 00:14:41;;;;;;;;;19.25;10.25;;;;;3.81;76.85;103259.78;4953192;28;11512;-72
2022/01/26 00:17:11;;;;;;;;;16.00;14.00;;;;;3.81;76.39;103254.41;4968090;28;11485;-71
2022/01/26 00:19:54;;;;;;;;;17.25;14.50;;;;;3.81;76.90;103243.72;4970412;28;11448;-71
2022/01/26 00:23:10;;;;;;;;;18.50;15.50;;;;;3.84;76.30;103248.03;4952414;28;11514;-71
2022/01/26 00:38:42;;;;;;;;;23.25;20.00;;;;;3.82;76.59;103237.41;4970537;28;11435;-74
2022/01/26 00:41:14;;;;;;;;;28.75;20.50;;;;;3.81;76.66;103241.03;4970311;28;11527;-71
2022/01/26 00:43:49;;;;;;;;;22.75;13.00;;;;;3.80;76.70;103235.75;4969231;28;11601;-72
2022/01/26 00:46:17;;;;;;;;;15.25;14.00;;;;;3.82;76.79;103229.34;4952417;28;11472;-72
2022/01/26 00:48:44;;;;;;;;;16.75;14.00;;;;;3.80;76.66;103228.59;4952073;28;11448;-72
2022/01/26 00:51:16;;;;;;;;;26.00;21.25;;;;;3.69;76.67;103221.13;4969992;28;11437;-72
2022/01/26 00:53:51;;;;;;;;;20.75;16.50;;;;;3.75;77.04;103221.75;4968515;28;11715;-72
2022/01/26 00:56:18;;;;;;;;;23.75;17.50;;;;;3.77;77.35;103223.41;4952862;28;11455;-71
2022/01/26 00:58:46;;;;;;;;;15.50;12.75;;;;;3.79;77.05;103231.34;4970702;28;11592;-72
2022/01/26 01:01:13;;;;;;;;;22.50;20.00;;;;;3.78;76.85;103224.25;4952607;28;11492;-72
2022/01/26 01:03:44;;;;;;;;;29.00;20.50;;;;;3.73;76.42;103219.16;4969765;28;11528;-71
2022/01/26 01:08:47;;;;;;;;;18.50;18.50;;;;;3.78;76.85;103201.00;4968518;28;11583;-72
2022/01/26 01:11:14;;;;;;;;;24.25;16.75;;;;;3.80;76.93;103207.16;4952433;28;11580;-72
2022/01/26 01:13:42;;;;;;;;;26.50;19.25;;;;;3.75;76.84;103192.28;4969558;28;11441;-72
2022/01/26 01:16:15;;;;;;;;;30.25;23.00;;;;;3.76;76.98;103186.84;4969134;28;11715;-71
2022/01/26 01:18:48;;;;;;;;;23.00;20.50;;;;;3.80;77.44;103193.75;4951258;28;11500;-72
2022/01/26 01:34:04;;;;;;;;;29.50;24.25;;;;;3.66;77.04;103186.47;4969164;28;11489;-73
2022/01/26 01:36:32;;;;;;;;;36.00;28.00;;;;;3.61;76.96;103183.19;4968539;28;11507;-71
2022/01/26 01:39:00;;;;;;;;;31.75;24.75;;;;;3.64;76.76;103174.13;4950265;28;11534;-72
2022/01/26 01:41:27;;;;;;;;;39.00;27.25;;;;;3.64;76.95;103177.66;4968370;28;11664;-71
2022/01/26 01:43:54;;;;;;;;;26.75;26.25;;;;;3.69;76.72;103183.63;4966967;28;11515;-72
2022/01/26 01:46:20;;;;;;;;;31.50;26.75;;;;;3.70;76.71;103174.63;4967801;28;11502;-72
2022/01/26 01:48:47;;;;;;;;;40.75;29.75;;;;;3.66;77.17;103161.50;4969304;28;11596;-73
2022/01/26 01:51:16;;;;;;;;;30.75;27.50;;;;;3.58;77.02;103166.44;4968234;28;12315;-73
2022/01/26 01:53:44;;;;;;;;;39.75;34.50;;;;;3.54;77.41;103151.50;4950103;28;11502;-72
2022/01/26 01:56:13;;;;;;;;;42.50;39.25;;;;;3.42;77.80;103145.00;4967488;28;11529;-72
2022/01/26 01:58:41;;;;;;;;;46.25;37.25;;;;;3.42;78.61;103149.50;4951073;28;11618;-72
2022/01/26 02:01:08;;;;;;;;;40.50;38.75;;;;;3.48;78.26;103150.03;4951484;28;12368;-71
2022/01/26 02:03:35;;;;;;;;;28.50;27.75;;;;;3.54;78.29;103141.66;4935805;28;12295;-73
2022/01/26 02:06:02;;;;;;;;;39.50;32.00;;;;;3.52;77.92;103132.84;4968977;28;11507;-72
2022/01/26 02:08:29;;;;;;;;;40.25;30.75;;;;;3.54;77.98;103141.66;4965218;28;11654;-73
2022/01/26 02:10:55;;;;;;;;;27.00;23.75;;;;;3.54;78.18;103135.44;4951442;28;11560;-73
2022/01/26 02:13:26;;;;;;;;;36.00;31.25;;;;;3.55;77.92;103121.09;4935251;28;11523;-73
2022/01/26 02:16:04;;;;;;;;;41.00;33.25;;;;;3.38;77.76;103130.94;4968921;28;11524;-72
2022/01/26 02:54:24;;;;;;;;;42.25;36.75;;;;;3.53;78.75;103083.69;4966723;28;11598;-73
2022/01/26 02:57:13;;;;;;;;;37.75;33.00;;;;;3.58;79.03;103078.06;4966999;28;11536;-72
2022/01/26 03:02:21;;;;;;;;;57.25;41.25;;;;;3.58;79.09;103078.06;4965481;28;11609;-74
2022/01/26 03:04:51;;;;;;;;;49.75;41.75;;;;;3.55;78.99;103068.41;4967252;28;11516;-72
2022/01/26 03:07:38;;;;;;;;;52.75;40.50;;;;;3.56;79.06;103072.81;4967080;28;11524;-73
2022/01/26 03:10:55;;;;;;;;;45.75;36.50;;;;;3.59;79.25;103075.31;4950516;28;11559;-74
2022/01/26 03:12:58;;;;;;;;;43.25;35.25;;;;;3.62;79.30;103085.81;4947202;28;11569;-73
2022/01/26 03:15:31;;;;;;;;;41.50;32.00;;;;;3.66;79.68;103087.38;4950237;28;12235;-73
2022/01/26 03:20:41;;;;;;;;;40.50;34.75;;;;;3.66;79.34;103067.75;4968288;28;11508;-69
2022/01/26 03:28:45;;;;;;;;;47.75;40.25;;;;;3.73;79.08;103079.88;4967866;28;11528;-71
2022/01/26 03:34:01;;;;;;;;;49.00;42.25;;;;;3.76;78.93;103071.66;4967268;28;11535;-70
2022/01/26 03:36:32;;;;;;;;;50.50;44.00;;;;;3.76;78.95;103089.53;4967782;28;11540;-69
2022/01/26 03:39:10;;;;;;;;;66.25;49.50;;;;;3.74;78.83;103070.00;4966490;28;11513;-70
2022/01/26 03:42:05;;;;;;;;;73.25;58.00;;;;;3.70;78.85;103077.34;4935322;28;11624;-70
2022/01/26 03:44:23;;;;;;;;;67.75;52.00;;;;;3.69;78.99;103084.50;4967827;28;11623;-71
2022/01/26 03:46:50;;;;;;;;;62.50;49.25;;;;;3.68;79.05;103089.97;4967767;28;11526;-70
2022/01/26 03:49:17;;;;;;;;;73.25;53.00;;;;;3.67;79.17;103088.22;4966280;28;11512;-70
2022/01/26 03:51:43;;;;;;;;;66.25;51.00;;;;;3.68;79.08;103095.31;4968675;28;11597;-70
2022/01/26 03:54:12;;;;;;;;;71.00;55.00;;;;;3.66;79.56;103121.34;4967730;28;11530;-71
2022/01/26 03:56:39;;;;;;;;;57.00;46.25;;;;;3.71;79.83;103121.91;4950641;28;11602;-69
2022/01/26 03:59:05;;;;;;;;;67.25;45.25;;;;;3.73;80.11;103135.25;4968293;28;11550;-72
2022/01/26 04:01:33;;;;;;;;;65.50;48.50;;;;;3.70;80.38;103144.31;4950046;28;11651;-71
2022/01/26 04:04:00;;;;;;;;;58.75;41.75;;;;;3.67;80.29;103145.34;4967050;28;11549;-71
2022/01/26 04:06:28;;;;;;;;;50.00;39.50;;;;;3.70;80.91;103136.28;4967530;28;11615;-71
2022/01/26 04:08:55;;;;;;;;;57.50;43.75;;;;;3.68;80.96;103143.53;4967841;28;11508;-72
2022/01/26 04:13:51;;;;;;;;;67.25;47.75;;;;;3.66;80.95;103153.47;4967135;28;11520;-71
2022/01/26 04:16:18;;;;;;;;;66.75;48.00;;;;;3.65;81.12;103125.81;4966831;28;11523;-73
2022/01/26 04:18:45;;;;;;;;;47.50;40.50;;;;;3.65;81.11;103106.22;4969917;28;11629;-73
2022/01/26 04:21:22;;;;;;;;;67.00;52.25;;;;;3.64;81.44;103081.25;4969978;28;11617;-72
2022/01/26 04:23:54;;;;;;;;;52.25;45.25;;;;;3.64;81.95;103069.66;4952657;28;11504;-71
2022/01/26 04:26:27;;;;;;;;;66.75;49.25;;;;;3.66;81.57;103067.75;4952980;28;11537;-72
2022/01/26 04:29:01;;;;;;;;;61.75;47.00;;;;;3.73;81.90;103073.66;4953877;28;11520;-71
2022/01/26 04:31:27;;;;;;;;;75.00;54.50;;;;;3.70;81.80;103082.69;4969994;28;11576;-72
2022/01/26 04:33:54;;;;;;;;;68.50;52.75;;;;;3.67;81.67;103067.66;4969886;28;12363;-72
2022/01/26 04:36:28;;;;;;;;;59.50;48.75;;;;;3.66;81.68;103067.75;4970894;28;11703;-71
2022/01/26 04:38:58;;;;;;;;;64.25;52.00;;;;;3.65;82.30;103085.66;4969890;28;11540;-71
2022/01/26 04:41:39;;;;;;;;;70.25;51.50;;;;;3.67;81.90;103069.47;4953991;28;12282;-72
2022/01/26 04:44:17;;;;;;;;;65.75;47.75;;;;;3.67;82.09;103074.84;4970718;28;11539;-71
2022/01/26 04:46:43;;;;;;;;;75.00;55.50;;;;;3.64;82.07;103075.03;4970273;28;11513;-71
2022/01/26 04:49:12;;;;;;;;;51.75;43.25;;;;;3.71;82.54;103073.72;4971721;28;11530;-71
2022/01/26 04:51:39;;;;;;;;;40.25;32.00;;;;;3.71;82.56;103063.84;4970309;28;11541;-71
2022/01/26 04:54:05;;;;;;;;;62.50;49.75;;;;;3.70;82.66;103042.50;4970181;28;11506;-71
2022/01/26 04:56:32;;;;;;;;;60.75;48.50;;;;;3.69;82.84;103038.97;4952492;28;11667;-72
2022/01/26 04:58:58;;;;;;;;;61.50;48.25;;;;;3.65;83.09;103045.47;4970095;28;11729;-72
2022/01/26 05:01:25;;;;;;;;;69.25;51.50;;;;;3.66;83.10;103052.56;4968050;28;11520;-72
2022/01/26 05:03:51;;;;;;;;;67.00;53.00;;;;;3.63;83.17;103049.19;4970089;28;12245;-71
2022/01/26 05:06:18;;;;;;;;;67.00;50.75;;;;;3.63;82.70;103046.53;4952309;28;11554;-71
2022/01/26 05:08:44;;;;;;;;;67.50;54.00;;;;;3.64;83.81;103043.75;4970066;28;11569;-71
2022/01/26 05:11:15;;;;;;;;;70.50;51.50;;;;;3.64;83.45;103037.53;4970276;28;11675;-72
2022/01/26 05:13:56;;;;;;;;;75.00;59.00;;;;;3.58;83.17;103028.03;4968443;28;11538;-71
2022/01/26 05:16:22;;;;;;;;;68.00;51.00;;;;;3.60;83.81;103030.63;4969322;28;11535;-71
2022/01/26 05:18:49;;;;;;;;;72.75;55.00;;;;;3.61;83.96;103032.34;4970733;28;11554;-72
2022/01/26 05:21:16;;;;;;;;;76.75;57.25;;;;;3.57;83.83;103038.84;4970082;28;11653;-70
2022/01/26 05:23:43;;;;;;;;;71.25;53.00;;;;;3.50;83.93;103049.06;4969598;28;11522;-71
2022/01/26 05:26:09;;;;;;;;;68.50;48.00;;;;;3.56;83.92;103064.78;4970102;28;11542;-72
2022/01/26 05:28:36;;;;;;;;;65.50;51.25;;;;;3.58;84.16;103064.69;4967367;28;12313;-72
2022/01/26 05:31:02;;;;;;;;;70.50;54.25;;;;;3.57;83.97;103066.50;4967405;28;11679;-71
2022/01/26 05:33:29;;;;;;;;;72.00;53.50;;;;;3.65;84.11;103055.31;4968897;28;11724;-71
2022/01/26 05:35:55;;;;;;;;;65.00;48.00;;;;;3.61;84.26;103057.31;4951494;28;12277;-71
2022/01/26 05:38:22;;;;;;;;;70.25;53.50;;;;;3.63;84.51;103055.41;4969134;28;11536;-72
2022/01/26 05:40:50;;;;;;;;;70.75;53.50;;;;;3.64;84.33;103053.59;5032103;23;11744;-72
2022/01/26 05:43:17;;;;;;;;;71.50;53.00;;;;;3.67;84.43;103054.28;5058729;28;12328;-73
2022/01/26 05:45:48;;;;;;;;;63.00;51.25;;;;;3.73;84.26;103068.28;5059523;28;11567;-72
2022/01/26 05:48:15;;;;;;;;;49.00;45.25;;;;;3.71;84.33;103063.84;5043188;28;11674;-73
2022/01/26 05:50:51;;;;;;;;;58.00;45.75;;;;;3.71;84.63;103047.78;5045906;28;12300;-73
2022/01/26 05:53:21;;;;;;;;;65.00;50.50;;;;;3.72;84.75;103048.69;5060317;28;11541;-73
2022/01/26 05:55:49;;;;;;;;;67.75;53.75;;;;;3.73;84.74;103047.72;5059409;28;11544;-73
2022/01/26 05:58:16;;;;;;;;;70.00;53.75;;;;;3.71;84.88;103042.44;5026647;28;11710;-73
2022/01/26 06:00:43;;;;;;;;;80.25;53.50;;;;;3.73;84.88;103053.09;5048577;28;11725;-72
2022/01/26 06:03:10;;;;;;;;;70.50;54.25;;;;;3.68;85.07;103033.72;5058237;28;11591;-73
2022/01/26 06:05:36;;;;;;;;;76.75;53.25;;;;;3.70;85.20;103039.84;5048081;28;11657;-74
2022/01/26 06:08:03;;;;;;;;;66.25;52.00;;;;;3.70;85.64;103021.94;5047407;28;11575;-73
2022/01/26 06:10:30;;;;;;;;;71.50;51.50;;;;;3.76;85.75;103018.06;5025432;28;11623;-72
2022/01/26 06:12:56;;;;;;;;;58.25;47.00;;;;;3.77;85.74;103022.47;5060211;28;11579;-73
2022/01/26 06:15:23;;;;;;;;;62.00;43.25;;;;;3.69;85.98;103020.22;5047782;28;12401;-72
2022/01/26 06:17:49;;;;;;;;;57.75;48.25;;;;;3.76;86.30;103015.38;5060987;28;11608;-71
2022/01/26 06:20:16;;;;;;;;;69.00;50.50;;;;;3.75;86.33;103021.69;5060167;28;11570;-73
2022/01/26 06:22:42;;;;;;;;;66.75;52.50;;;;;3.76;86.48;103023.44;5043726;28;11809;-73
2022/01/26 06:25:09;;;;;;;;;60.50;47.00;;;;;3.77;86.49;103019.78;5048585;28;11638;-73
2022/01/26 06:27:38;;;;;;;;;53.00;45.75;;;;;3.83;86.80;103021.25;5047805;28;11588;-73
2022/01/26 06:30:06;;;;;;;;;64.50;48.00;;;;;3.87;86.71;103028.13;5048514;28;11551;-73
2022/01/26 06:32:33;;;;;;;;;58.75;43.25;;;;;3.90;86.51;103027.94;5041040;28;11602;-72
2022/01/26 06:35:00;;;;;;;;;53.25;45.75;;;;;3.91;86.88;103022.50;5060356;28;11580;-73
2022/01/26 06:37:27;;;;;;;;;71.25;54.25;;;;;3.88;86.45;103025.34;5047984;28;11568;-72
2022/01/26 06:39:53;;;;;;;;;57.75;46.25;;;;;3.91;87.20;103035.88;5057578;28;11576;-73
2022/01/26 06:42:25;;;;;;;;;54.00;45.00;;;;;3.82;86.39;103043.63;5046856;28;12319;-73
2022/01/26 06:45:17;;;;;;;;;55.75;41.25;;;;;3.85;85.75;103035.41;5045903;28;11585;-73
2022/01/26 06:50:24;;;;;;;;;41.00;33.50;;;;;3.90;84.41;103041.34;5038654;28;11611;-73
2022/01/26 06:52:51;;;;;;;;;55.00;42.25;;;;;3.96;84.59;103044.50;5057249;28;11665;-72
2022/01/26 06:55:18;;;;;;;;;46.25;37.75;;;;;3.98;84.27;103039.94;5041773;28;11593;-73
2022/01/26 06:57:45;;;;;;;;;37.75;35.75;;;;;3.95;83.70;103056.19;5041139;28;11607;-73
2022/01/26 07:00:13;;;;;;;;;46.50;39.25;;;;;3.87;83.57;103074.53;5060736;28;11631;-72
2022/01/26 07:02:39;;;;;;;;;42.50;36.75;;;;;3.93;83.73;103065.28;5042603;28;11575;-73
2022/01/26 07:05:07;;;;;;;;;55.25;40.75;;;;;3.97;83.16;103080.25;5057592;28;11609;-73
2022/01/26 07:07:33;;;;;;;;;45.00;40.00;;;;;3.95;83.48;103074.09;5059628;28;11674;-73
2022/01/26 07:10:00;;;;;;;;;45.50;41.25;;;;;3.94;83.49;103067.84;5057002;28;11713;-73
2022/01/26 07:12:27;;;;;;;;;47.00;38.75;;;;;3.93;83.25;103076.84;5056036;28;11600;-73
2022/01/26 07:23:07;;;;;;;;;55.50;45.50;;;;;3.77;82.72;103102.84;5057282;28;11599;-73
2022/01/26 07:25:34;;;;;;;;;42.00;33.50;;;;;3.82;82.58;103098.06;5056110;28;11554;-72
2022/01/26 07:28:03;;;;;;;;;43.00;38.75;;;;;3.86;82.56;103096.06;5046764;28;11552;-72
2022/01/26 07:30:37;;;;;;;;;53.00;44.00;;;;;3.85;82.21;103086.31;5058691;28;12345;-74
2022/01/26 07:33:05;;;;;;;;;54.00;42.75;;;;;3.80;82.45;103101.78;5045114;28;11568;-72
2022/01/26 07:35:33;;;;;;;;;57.50;42.25;;;;;3.85;82.48;103094.34;5056949;28;11678;-72
2022/01/26 07:38:02;;;;;;;;;48.50;35.00;;;;;4.02;82.55;103086.19;5059315;28;11668;-74
2022/01/26 07:40:29;;;;;;;;;44.50;34.25;;;;;3.98;82.55;103093.56;5055836;28;11626;-75
2022/01/26 07:42:56;;;;;;;;;38.00;31.25;;;;;4.01;82.36;103096.03;5054540;28;11576;-72
2022/01/26 07:45:23;;;;;;;;;23.75;21.50;;;;;4.01;82.59;103087.13;5045332;28;11549;-73
2022/01/26 07:47:53;;;;;;;;;38.75;34.00;;;;;4.01;82.83;103084.47;5057119;28;11565;-73
2022/01/26 07:50:21;;;;;;;;;44.75;42.25;;;;;3.91;82.86;103088.63;5047814;28;11553;-72
2022/01/26 07:52:47;;;;;;;;;51.75;40.25;;;;;3.92;82.99;103087.66;5045833;28;11647;-75
2022/01/26 07:55:17;;;;;;;;;36.75;32.25;;;;;3.95;83.24;103076.75;5063977;28;11692;-73
2022/01/26 07:57:45;;;;;;;;;46.00;37.00;;;;;3.96;83.02;103074.00;5049537;28;11548;-73
2022/01/26 08:00:13;;;;;;;;;49.50;38.75;;;;;3.93;82.85;103082.22;5062846;28;11631;-73
2022/01/26 08:02:40;;;;;;;;;46.00;39.50;;;;;4.08;83.16;103085.81;5059696;28;11705;-71
2022/01/26 08:05:08;;;;;;;;;44.00;30.75;;;;;4.08;83.14;103093.84;5056227;28;11548;-72
2022/01/26 08:07:35;;;;;;;;;48.75;40.25;;;;;4.06;82.88;103081.50;5057085;28;11565;-72
2022/01/26 08:10:03;;;;;;;;;60.00;41.75;;;;;4.04;83.08;103086.09;5059615;28;11591;-74
2022/01/26 08:12:29;;;;;;;;;49.25;34.00;;;;;3.98;83.18;103081.97;5044952;28;11603;-73
2022/01/26 08:15:16;;;;;;;;;45.25;35.50;;;;;3.95;83.11;103080.31;5059255;28;11555;-73
2022/01/26 08:17:43;;;;;;;;;53.75;42.25;;;;;4.00;83.73;103075.56;5060768;28;11718;-72
2022/01/26 08:20:11;;;;;;;;;43.75;39.75;;;;;3.95;83.54;103074.94;5058454;28;11651;-72
2022/01/26 08:22:39;;;;;;;;;42.25;36.00;;;;;3.96;83.60;103059.72;5058148;28;11706;-72
2022/01/26 08:25:06;;;;;;;;;43.25;35.00;;;;;4.00;83.37;103058.63;5045482;28;11591;-73
2022/01/26 08:27:40;;;;;;;;;39.25;32.00;;;;;3.95;82.92;103058.00;5045425;28;11648;-71
2022/01/26 08:30:11;;;;;;;;;43.00;37.25;;;;;3.98;83.20;103072.09;5059587;28;11564;-73
2022/01/26 08:32:38;;;;;;;;;35.50;30.50;;;;;3.98;83.32;103071.25;5041850;28;11565;-73
2022/01/26 08:35:05;;;;;;;;;43.50;35.50;;;;;4.03;83.57;103079.00;5056889;28;11615;-74
2022/01/26 08:37:31;;;;;;;;;38.75;34.50;;;;;4.06;83.59;103076.13;5060350;28;11592;-72
2022/01/26 08:39:58;;;;;;;;;43.50;33.25;;;;;4.03;83.36;103074.50;5043461;28;11563;-72
2022/01/26 08:42:25;;;;;;;;;52.00;39.75;;;;;4.04;83.29;103075.38;5061284;28;11591;-73
2022/01/26 08:44:52;;;;;;;;;42.00;38.00;;;;;3.98;83.22;103073.94;5042603;28;11614;-71
2022/01/26 08:47:19;;;;;;;;;39.75;35.00;;;;;4.05;83.51;103075.28;5059421;28;11662;-72
2022/01/26 08:49:46;;;;;;;;;41.50;35.00;;;;;4.07;83.53;103081.41;5035892;28;11570;-71
2022/01/26 08:52:12;;;;;;;;;43.75;34.00;;;;;4.08;83.25;103077.78;5040426;28;11580;-72
2022/01/26 08:54:39;;;;;;;;;38.00;32.75;;;;;4.08;83.10;103076.91;5039359;28;12353;-73
2022/01/26 08:57:06;;;;;;;;;45.75;32.00;;;;;4.16;83.57;103082.66;5053303;28;12374;-71
2022/01/26 08:59:33;;;;;;;;;44.50;37.50;;;;;4.17;83.31;103087.94;5035592;28;11591;-72
2022/01/26 09:01:59;;;;;;;;;47.25;37.25;;;;;4.16;83.74;103079.97;5052420;28;11589;-71
2022/01/26 09:04:26;;;;;;;;;36.00;27.75;;;;;4.16;83.56;103080.84;5059893;28;11569;-73
2022/01/26 09:06:56;;;;;;;;;41.25;35.50;;;;;4.13;83.79;103074.81;5057912;28;11575;-73
2022/01/26 09:09:26;;;;;;;;;31.00;26.00;;;;;4.16;83.99;103077.31;5057846;28;11549;-73
2022/01/26 09:11:55;;;;;;;;;33.75;28.25;;;;;4.20;83.97;103077.00;5058181;28;12163;-72
2022/01/26 09:14:24;;;;;;;;;39.25;31.25;;;;;4.21;83.78;103077.88;5040514;28;11528;-74
2022/01/26 09:16:53;;;;;;;;;46.00;36.00;;;;;4.14;83.86;103074.72;5038836;28;11647;-72
2022/01/26 09:19:27;;;;;;;;;37.25;34.75;;;;;4.15;83.80;103068.41;5057431;28;11602;-73
2022/01/26 09:22:00;;;;;;;;;39.50;26.50;;;;;4.19;83.82;103072.63;5059671;28;11657;-73
2022/01/26 09:24:28;;;;;;;;;26.25;23.75;;;;;4.13;83.87;103073.00;5040343;28;12301;-73
2022/01/26 09:26:55;;;;;;;;;35.75;31.25;;;;;4.07;84.61;103076.03;5042640;28;11619;-73
2022/01/26 09:29:22;;;;;;;;;36.25;31.00;;;;;4.09;85.01;103087.53;5026253;28;11593;-73
2022/01/26 09:31:49;;;;;;;;;43.00;32.50;;;;;4.10;84.74;103091.06;5039449;28;11648;-73
2022/01/26 09:34:17;;;;;;;;;53.25;35.75;;;;;4.14;84.85;103095.28;5059119;28;11602;-73
2022/01/26 09:36:44;;;;;;;;;27.25;23.25;;;;;4.10;84.46;103107.16;5056673;28;11720;-72
2022/01/26 09:39:15;;;;;;;;;37.25;30.75;;;;;4.08;84.26;103101.91;5056402;28;11497;-73
2022/01/26 09:41:45;;;;;;;;;38.75;32.50;;;;;4.10;83.84;103096.44;5057771;28;11522;-73
2022/01/26 09:44:13;;;;;;;;;30.75;26.50;;;;;4.05;83.56;103085.13;5034899;28;11654;-72
2022/01/26 09:46:41;;;;;;;;;31.00;27.25;;;;;4.12;84.08;103091.84;5041976;28;11596;-73
2022/01/26 09:49:08;;;;;;;;;29.75;26.50;;;;;4.14;83.79;103085.44;5057547;28;11732;-70
2022/01/26 09:51:42;;;;;;;;;29.00;26.00;;;;;4.32;84.00;103073.59;5058463;28;11510;-72
2022/01/26 09:54:13;;;;;;;;;30.25;28.00;;;;;4.24;83.68;103067.84;5059403;28;11585;-73
2022/01/26 09:56:41;;;;;;;;;28.75;26.50;;;;;4.31;83.72;103073.72;5061616;28;11518;-72
2022/01/26 09:59:08;;;;;;;;;31.50;29.00;;;;;4.35;83.45;103077.06;5041053;28;12662;-73
2022/01/26 10:01:42;;;;;;;;;35.75;24.00;;;;;4.36;83.58;103097.56;5044681;28;11918;-73
2022/01/26 10:04:26;;;;;;;;;28.50;27.75;;;;;4.35;83.38;103094.00;5042706;28;11500;-73
2022/01/26 10:07:24;;;;;;;;;29.25;24.25;;;;;4.43;83.61;103106.94;5040309;28;11514;-73
2022/01/26 10:10:28;;;;;;;;;36.75;31.00;;;;;4.45;83.46;103107.72;5052649;28;11550;-71
2022/01/26 10:15:44;;;;;;;;;26.50;24.25;;;;;4.53;83.39;103108.97;5057539;28;12341;-73
2022/01/26 10:18:18;;;;;;;;;29.50;24.25;;;;;4.57;83.37;103112.34;5039320;28;11644;-74
2022/01/26 10:20:52;;;;;;;;;37.00;30.25;;;;;4.55;83.11;103107.06;5055733;28;11633;-72
2022/01/26 10:23:24;;;;;;;;;35.50;32.50;;;;;4.65;83.09;103096.63;5040453;28;11531;-73
2022/01/26 10:26:12;;;;;;;;;33.00;25.25;;;;;4.71;83.12;103093.59;5052734;28;12341;-72
2022/01/26 10:29:00;;;;;;;;;32.50;21.75;;;;;5.00;83.86;103101.63;5036014;28;11522;-73
2022/01/26 10:31:31;;;;;;;;;40.25;29.00;;;;;4.85;82.22;103095.38;5032277;28;11512;-71
2022/01/26 10:34:17;;;;;;;;;38.25;31.00;;;;;4.92;82.56;103077.94;5052622;28;11527;-72
2022/01/26 10:36:43;;;;;;;;;25.75;24.25;;;;;4.94;82.65;103090.28;5037841;28;11693;-73
2022/01/26 10:39:19;;;;;;;;;39.50;29.25;;;;;4.90;83.01;103087.91;5035712;28;11469;-73
2022/01/26 10:41:47;;;;;;;;;38.50;33.25;;;;;4.88;82.89;103082.63;5050271;28;11601;-73
2022/01/26 10:44:16;;;;;;;;;42.00;35.00;;;;;4.94;82.70;103078.69;5049713;28;11523;-73
2022/01/26 10:46:44;;;;;;;;;31.00;30.50;;;;;4.98;82.43;103074.88;5052669;28;11554;-73
2022/01/26 10:54:39;;;;;;;;;34.50;31.25;;;;;5.08;82.25;103064.41;5043185;28;11567;-73
2022/01/26 10:57:09;;;;;;;;;36.00;27.50;;;;;5.11;82.59;103064.19;5057331;28;11537;-74
2022/01/26 10:59:43;;;;;;;;;34.00;29.50;;;;;5.16;82.27;103065.63;5055256;28;11505;-73
2022/01/26 11:02:11;;;;;;;;;38.00;33.50;;;;;5.19;81.87;103061.88;5053148;28;11508;-72
2022/01/26 11:04:41;;;;;;;;;51.75;32.50;;;;;5.23;81.94;103066.97;5018069;28;11649;-72
2022/01/26 11:07:11;;;;;;;;;28.50;21.00;;;;;5.87;86.33;103064.50;5035650;28;11541;-72
2022/01/26 11:09:40;;;;;;;;;31.25;29.00;;;;;5.52;80.92;103057.00;5037392;28;11530;-73
2022/01/26 11:12:10;;;;;;;;;29.00;23.50;;;;;5.44;80.79;103061.13;5051463;28;11603;-72
2022/01/26 11:14:50;;;;;;;;;34.00;31.25;;;;;5.42;81.04;103065.75;5053369;28;11557;-72
2022/01/26 11:17:34;;;;;;;;;40.50;27.25;;;;;5.39;81.17;103057.88;5052058;28;11461;-72
2022/01/26 11:20:14;;;;;;;;;41.75;34.50;;;;;5.38;81.26;103050.81;5053186;28;11519;-72
2022/01/26 11:22:55;;;;;;;;;20.25;20.25;;;;;5.41;81.30;103039.84;5038134;28;11535;-73
2022/01/26 11:25:24;;;;;;;;;37.25;30.00;;;;;5.39;81.14;103050.69;5039046;28;12255;-72
2022/01/26 11:27:52;;;;;;;;;30.00;21.50;;;;;5.45;81.69;103047.63;5054294;28;11520;-72
2022/01/26 11:30:31;;;;;;;;;36.75;29.25;;;;;5.46;81.46;103038.59;5052883;28;11521;-73
2022/01/26 11:32:58;;;;;;;;;35.00;28.00;;;;;5.50;81.37;103031.19;5052482;28;11515;-72
2022/01/26 11:35:35;;;;;;;;;33.00;27.00;;;;;5.51;80.85;103033.78;5041028;28;11619;-73
2022/01/26 11:47:01;;;;;;;;;44.50;37.00;;;;;5.57;80.33;103019.94;5049611;28;11665;-72
2022/01/26 11:49:36;;;;;;;;;31.75;25.75;;;;;5.61;80.91;103025.97;5049922;28;11515;-73
2022/01/26 11:52:04;;;;;;;;;28.75;27.75;;;;;5.66;80.81;103034.56;5050596;28;11518;-72
2022/01/26 11:54:53;;;;;;;;;28.50;23.75;;;;;5.73;80.79;103049.34;5036085;28;11643;-73
2022/01/26 11:57:37;;;;;;;;;27.25;24.75;;;;;5.68;80.66;103043.38;5033309;28;11500;-73
2022/01/26 12:00:09;;;;;;;;;29.75;26.75;;;;;5.70;80.99;103040.59;5033707;28;11569;-73
2022/01/26 12:05:19;;;;;;;;;29.50;24.50;;;;;6.24;84.13;103045.91;5057045;28;11543;-72
2022/01/26 12:07:54;;;;;;;;;30.25;27.75;;;;;5.86;80.28;103035.91;5055378;28;11558;-74
2022/01/26 12:10:29;;;;;;;;;32.75;29.75;;;;;5.80;80.42;103039.88;5055681;28;11500;-72
2022/01/26 12:13:04;;;;;;;;;29.50;22.00;;;;;5.83;80.93;103033.44;5038868;28;12078;-73
2022/01/26 12:15:41;;;;;;;;;33.25;27.25;;;;;5.84;80.87;103033.31;5039121;28;11577;-73
2022/01/26 12:32:30;;;;;;;;;34.25;28.00;;;;;5.88;81.58;103010.66;5056292;28;11540;-71
2022/01/26 12:35:12;;;;;;;;;26.50;21.50;;;;;5.95;81.34;103004.88;5057386;28;11516;-71
2022/01/26 12:43:19;;;;;;;;;28.75;22.00;;;;;5.97;82.08;103008.34;5061008;28;11545;-71
2022/01/26 12:45:55;;;;;;;;;25.00;22.50;;;;;6.02;81.84;103008.88;5057978;28;11512;-72
2022/01/26 12:48:22;;;;;;;;;25.50;18.75;;;;;6.06;81.85;103005.00;5042371;28;11500;-73
2022/01/26 12:50:49;;;;;;;;;26.00;25.50;;;;;6.07;81.87;103001.34;5042803;28;11502;-71
2022/01/26 12:53:23;;;;;;;;;27.75;24.00;;;;;6.07;82.13;102986.06;5042658;28;11513;-72
2022/01/26 12:55:56;;;;;;;;;34.25;27.75;;;;;6.07;81.91;102996.84;5060006;28;11503;-71
2022/01/26 12:58:30;;;;;;;;;32.75;28.50;;;;;6.08;81.63;102995.00;5026153;28;11523;-73
2022/01/26 13:01:05;;;;;;;;;33.75;29.50;;;;;6.03;82.45;102995.34;5059321;28;11523;-72
2022/01/26 13:03:36;;;;;;;;;32.75;28.75;;;;;6.04;82.73;102988.13;5059575;28;11489;-71
2022/01/26 13:06:24;;;;;;;;;31.50;28.75;;;;;6.04;82.78;102988.13;5061247;28;11605;-72
2022/01/26 13:08:53;;;;;;;;;25.50;22.00;;;;;6.08;83.08;102982.41;5060463;28;12557;-70
2022/01/26 13:11:29;;;;;;;;;34.25;30.00;;;;;6.03;83.18;102984.56;5042520;28;11503;-71
2022/01/26 13:17:16;;;;;;;;;32.00;24.75;;;;;6.07;83.77;102975.31;5040204;28;11526;-71
2022/01/26 13:19:57;;;;;;;;;26.00;24.25;;;;;6.06;83.77;102967.38;5045827;28;11513;-71
2022/01/26 13:34:10;;;;;;;;;28.25;24.00;;;;;6.20;84.03;102964.56;5056610;28;11500;-71
2022/01/26 13:36:49;;;;;;;;;22.75;18.75;;;;;6.20;84.53;102972.66;5038936;28;11516;-71
2022/01/26 13:45:06;;;;;;;;;26.00;17.00;;;;;6.23;85.20;102980.50;5038040;28;12242;-70
2022/01/26 13:52:55;;;;;;;;;19.75;17.75;;;;;6.23;85.03;102966.19;5054938;28;11456;-70
2022/01/26 13:55:44;;;;;;;;;23.00;17.50;;;;;6.29;85.18;102971.97;5054814;28;11483;-72
2022/01/26 13:59:16;;;;;;;;;13.00;11.00;;;;;6.27;84.63;102973.06;5052708;28;11173;-72
2022/01/26 14:01:16;;;;;;;;;20.25;18.00;;;;;6.27;84.87;102975.75;5038919;28;11140;-69
2022/01/26 14:03:47;;;;;;;;;21.75;19.75;;;;;6.27;84.74;102983.81;5038000;28;11210;-72
2022/01/26 14:06:13;;;;;;;;;22.75;17.75;;;;;6.27;84.43;102978.44;5055059;28;11483;-72
2022/01/26 14:08:41;;;;;;;;;20.00;17.50;;;;;6.24;84.65;102965.22;5041565;28;11583;-70
2022/01/26 14:11:09;;;;;;;;;21.00;17.75;;;;;6.33;84.82;102968.09;5059064;28;11255;-71
2022/01/26 14:13:37;;;;;;;;;24.75;22.00;;;;;6.33;84.79;102965.41;5059943;28;11355;-72
2022/01/26 14:16:05;;;;;;;;;20.00;18.00;;;;;6.36;84.88;102969.72;5043308;28;11201;-71